createdAt,value
2019-04-10T00:00:56.333Z,4.00
2019-04-10T00:01:57.974Z,4.00
2019-04-10T00:02:56.278Z,4.00
2019-04-10T00:03:56.760Z,4.00
2019-04-10T00:04:56.239Z,4.00
2019-04-10T00:05:56.390Z,4.00
2019-04-10T00:07:10.436Z,4.00
2019-04-10T00:07:56.158Z,4.00
2019-04-10T00:08:56.739Z,4.00
2019-04-10T00:09:57.090Z,4.00
2019-04-10T00:10:56.359Z,4.00
2019-04-10T00:11:56.979Z,4.00
2019-04-10T00:12:56.278Z,4.00
2019-04-10T00:13:56.015Z,4.00
2019-04-10T00:14:56.746Z,4.00
2019-04-10T00:15:56.941Z,4.00
2019-04-10T00:16:56.413Z,4.00
2019-04-10T00:17:55.918Z,4.00
2019-04-10T00:18:56.171Z,4.00
2019-04-10T00:19:56.066Z,4.00
2019-04-10T00:20:56.697Z,4.00
2019-04-10T00:21:55.823Z,4.00
2019-04-10T00:22:55.798Z,4.00
2019-04-10T00:23:55.778Z,4.00
2019-04-10T00:24:56.615Z,4.00
2019-04-10T00:25:55.730Z,4.00
2019-04-10T00:26:56.432Z,4.00
2019-04-10T00:27:55.861Z,4.00
2019-04-10T00:28:56.036Z,4.00
2019-04-10T00:29:56.475Z,4.00
2019-04-10T00:30:55.700Z,4.00
2019-04-10T00:31:56.381Z,4.00
2019-04-10T00:32:56.440Z,4.00
2019-04-10T00:33:55.538Z,4.00
2019-04-10T00:34:56.112Z,4.00
2019-04-10T00:35:56.054Z,4.00
2019-04-10T00:36:55.533Z,4.00
2019-04-10T00:37:55.571Z,4.00
2019-04-10T00:38:55.916Z,4.00
2019-04-10T00:39:55.390Z,4.00
2019-04-10T00:40:55.513Z,4.00
2019-04-10T00:41:55.338Z,4.00
2019-04-10T00:42:57.056Z,4.00
2019-04-10T00:43:55.353Z,4.00
2019-04-10T00:44:56.287Z,4.00
2019-04-10T00:45:55.240Z,4.00
2019-04-10T00:46:55.218Z,4.00
2019-04-10T00:47:55.264Z,4.00
2019-04-10T00:48:55.169Z,4.00
2019-04-10T00:49:55.782Z,4.00
2019-04-10T00:50:55.120Z,4.00
2019-04-10T00:51:55.541Z,4.00
2019-04-10T00:52:55.070Z,4.00
2019-04-10T00:53:55.047Z,4.00
2019-04-10T00:54:55.377Z,4.00
2019-04-10T00:55:55.000Z,4.00
2019-04-10T00:56:54.979Z,4.00
2019-04-10T00:57:56.098Z,4.00
2019-04-10T00:58:55.424Z,4.00
2019-04-10T00:59:54.905Z,4.00
2019-04-10T01:00:55.103Z,4.00
2019-04-10T01:01:54.850Z,4.00
2019-04-10T01:02:54.830Z,4.00
2019-04-10T01:03:56.334Z,4.00
2019-04-10T01:04:55.072Z,4.00
2019-04-10T01:05:55.466Z,4.00
2019-04-10T01:06:54.732Z,4.00
2019-04-10T01:07:54.726Z,4.00
2019-04-10T01:08:55.162Z,4.00
2019-04-10T01:09:55.577Z,4.00
2019-04-10T01:10:54.778Z,4.00
2019-04-10T01:11:55.231Z,4.00
2019-04-10T01:12:54.590Z,4.00
2019-04-10T01:13:54.561Z,4.00
2019-04-10T01:14:54.536Z,4.00
2019-04-10T01:15:55.158Z,4.00
2019-04-10T01:16:54.487Z,4.00
2019-04-10T01:17:54.819Z,4.00
2019-04-10T01:18:55.174Z,4.00
2019-04-10T01:19:54.509Z,4.00
2019-04-10T01:20:54.405Z,4.00
2019-04-10T01:21:54.842Z,4.00
2019-04-10T01:22:55.235Z,4.00
2019-04-10T01:23:55.307Z,4.00
2019-04-10T01:24:54.464Z,4.00
2019-04-10T01:25:54.746Z,4.00
2019-04-10T01:26:54.256Z,4.00
2019-04-10T01:27:54.277Z,4.00
2019-04-10T01:28:57.496Z,4.00
2019-04-10T01:29:54.227Z,4.00
2019-04-10T01:30:54.949Z,4.00
2019-04-10T01:31:55.062Z,4.00
2019-04-10T01:32:54.423Z,4.00
2019-04-10T01:33:54.788Z,4.00
2019-04-10T01:34:54.046Z,4.00
2019-04-10T01:35:54.348Z,4.00
2019-04-10T01:36:54.626Z,4.00
2019-04-10T01:38:00.145Z,4.00
2019-04-10T01:38:53.949Z,4.00
2019-04-10T01:39:54.825Z,4.00
2019-04-10T01:40:53.911Z,4.00
2019-04-10T01:41:54.401Z,4.00
2019-04-10T01:43:09.293Z,4.00
2019-04-10T01:43:53.824Z,4.00
2019-04-10T01:44:53.799Z,4.00
2019-04-10T01:45:53.778Z,4.00
2019-04-10T01:46:54.885Z,4.00
2019-04-10T01:47:53.724Z,4.00
2019-04-10T01:48:53.705Z,4.00
2019-04-10T01:49:53.786Z,4.00
2019-04-10T01:50:53.655Z,4.00
2019-04-10T01:51:53.628Z,4.00
2019-04-10T01:52:53.603Z,4.00
2019-04-10T01:53:54.465Z,4.00
2019-04-10T01:54:53.552Z,4.00
2019-04-10T01:55:53.577Z,4.00
2019-04-10T01:56:53.506Z,4.00
2019-04-10T01:57:53.480Z,4.00
2019-04-10T01:58:53.754Z,4.00
2019-04-10T01:59:54.242Z,4.00
2019-04-10T02:00:54.220Z,4.00
2019-04-10T02:01:53.377Z,4.00
2019-04-10T02:02:53.982Z,4.00
2019-04-10T02:03:54.262Z,4.00
2019-04-10T02:04:54.206Z,4.00
2019-04-10T02:05:53.346Z,4.00
2019-04-10T02:06:53.786Z,4.00
2019-04-10T02:08:05.763Z,4.00
2019-04-10T02:08:54.230Z,4.00
2019-04-10T02:09:54.015Z,4.00
2019-04-10T02:10:53.309Z,4.00
2019-04-10T02:11:53.131Z,4.00
2019-04-10T02:12:53.109Z,4.00
2019-04-10T02:13:54.027Z,4.00
2019-04-10T02:14:53.071Z,4.00
2019-04-10T02:15:53.036Z,4.00
2019-04-10T02:16:53.006Z,4.00
2019-04-10T02:17:53.008Z,4.00
2019-04-10T02:18:54.054Z,4.00
2019-04-10T02:19:52.929Z,4.00
2019-04-10T02:20:53.628Z,4.00
2019-04-10T02:21:52.910Z,4.00
2019-04-10T02:22:53.871Z,4.00
2019-04-10T02:23:52.831Z,4.00
2019-04-10T02:24:53.511Z,4.00
2019-04-10T02:25:52.867Z,4.00
2019-04-10T02:26:53.969Z,4.00
2019-04-10T02:27:52.731Z,4.00
2019-04-10T02:28:53.439Z,4.00
2019-04-10T02:29:52.680Z,4.00
2019-04-10T02:30:54.187Z,4.00
2019-04-10T02:31:53.294Z,4.00
2019-04-10T02:32:54.206Z,4.00
2019-04-10T02:33:53.725Z,4.00
2019-04-10T02:34:53.183Z,4.00
2019-04-10T02:35:52.661Z,4.00
2019-04-10T02:36:52.923Z,4.00
2019-04-10T02:37:55.587Z,4.00
2019-04-10T02:39:04.616Z,4.00
2019-04-10T02:39:56.255Z,4.00
2019-04-10T02:40:53.014Z,4.00
2019-04-10T02:41:52.512Z,4.00
2019-04-10T02:42:52.379Z,4.00
2019-04-10T02:43:53.755Z,4.00
2019-04-10T02:44:52.364Z,4.00
2019-04-10T02:45:52.281Z,4.00
2019-04-10T02:46:54.905Z,4.00
2019-04-10T02:47:52.847Z,4.00
2019-04-10T02:48:54.119Z,4.00
2019-04-10T02:49:52.295Z,4.00
2019-04-10T02:50:53.359Z,4.00
2019-04-10T02:51:52.128Z,4.00
2019-04-10T02:52:52.441Z,4.00
2019-04-10T02:53:53.825Z,4.00
2019-04-10T02:54:53.705Z,4.00
2019-04-10T02:55:53.555Z,4.00
2019-04-10T02:56:52.804Z,4.00
2019-04-10T02:57:51.987Z,4.00
2019-04-10T02:58:51.952Z,4.00
2019-04-10T02:59:53.665Z,4.00
2019-04-10T03:00:54.294Z,4.00
2019-04-10T03:01:52.372Z,4.00
2019-04-10T03:02:52.065Z,4.00
2019-04-10T03:03:52.554Z,4.00
2019-04-10T03:04:53.289Z,4.00
2019-04-10T03:05:51.780Z,4.00
2019-04-10T03:06:53.396Z,4.00
2019-04-10T03:07:52.640Z,4.00
2019-04-10T03:09:08.632Z,4.00
2019-04-10T03:10:01.969Z,4.00
2019-04-10T03:10:59.011Z,4.00
2019-04-10T03:11:51.973Z,4.00
2019-04-10T03:12:52.589Z,4.00
2019-04-10T03:13:53.279Z,4.00
2019-04-10T03:14:52.294Z,4.00
2019-04-10T03:15:51.900Z,4.00
2019-04-10T03:16:51.553Z,4.00
2019-04-10T03:17:52.430Z,4.00
2019-04-10T03:18:51.446Z,4.00
2019-04-10T03:19:51.854Z,4.00
2019-04-10T03:20:51.498Z,4.00
2019-04-10T03:21:51.463Z,4.00
2019-04-10T03:22:51.479Z,4.00
2019-04-10T03:23:51.320Z,4.00
2019-04-10T03:24:51.294Z,4.00
2019-04-10T03:25:51.276Z,4.00
2019-04-10T03:26:52.159Z,4.00
2019-04-10T03:27:52.452Z,4.00
2019-04-10T03:28:51.480Z,4.00
2019-04-10T03:29:51.942Z,4.00
2019-04-10T03:30:51.144Z,4.00
2019-04-10T03:31:52.994Z,4.00
2019-04-10T03:32:55.826Z,4.00
2019-04-10T03:33:54.429Z,4.00
2019-04-10T03:34:51.346Z,4.00
2019-04-10T03:35:51.443Z,4.00
2019-04-10T03:36:51.757Z,4.00
2019-04-10T03:37:50.965Z,4.00
2019-04-10T03:38:59.581Z,4.00
2019-04-10T03:39:51.053Z,4.00
2019-04-10T03:40:51.423Z,4.00
2019-04-10T03:41:50.863Z,4.00
2019-04-10T03:42:50.962Z,4.00
2019-04-10T03:43:50.813Z,4.00
2019-04-10T03:44:51.396Z,4.00
2019-04-10T03:45:50.866Z,4.00
2019-04-10T03:46:51.195Z,4.00
2019-04-10T03:47:51.524Z,4.00
2019-04-10T03:48:51.517Z,4.00
2019-04-10T03:49:50.661Z,4.00
2019-04-10T03:50:50.646Z,4.00
2019-04-10T03:51:50.609Z,4.00
2019-04-10T03:52:51.613Z,4.00
2019-04-10T03:53:50.871Z,4.00
2019-04-10T03:54:50.536Z,4.00
2019-04-10T03:55:51.137Z,4.00
2019-04-10T03:56:50.488Z,4.00
2019-04-10T03:57:51.842Z,4.00
2019-04-10T03:58:51.425Z,4.00
2019-04-10T03:59:50.408Z,4.00
2019-04-10T04:00:50.647Z,8.00
2019-04-10T04:01:51.303Z,8.00
2019-04-10T04:02:50.329Z,4.00
2019-04-10T04:03:51.170Z,4.00
2019-04-10T04:04:50.280Z,4.00
2019-04-10T04:05:51.055Z,4.00
2019-04-10T04:06:50.314Z,4.00
2019-04-10T04:07:50.692Z,4.00
2019-04-10T04:09:01.735Z,4.00
2019-04-10T04:09:50.152Z,8.00
2019-04-10T04:10:51.226Z,8.00
2019-04-10T04:11:50.315Z,4.00
2019-04-10T04:12:50.972Z,4.00
2019-04-10T04:13:50.113Z,8.00
2019-04-10T04:14:50.023Z,4.00
2019-04-10T04:15:50.566Z,8.00
2019-04-10T04:16:50.006Z,8.00
2019-04-10T04:17:50.638Z,8.00
2019-04-10T04:18:49.949Z,12.00
2019-04-10T04:19:50.455Z,8.00
2019-04-10T04:20:50.907Z,12.00
2019-04-10T04:21:50.251Z,16.00
2019-04-10T04:22:49.821Z,16.00
2019-04-10T04:23:49.794Z,20.00
2019-04-10T04:24:50.302Z,24.00
2019-04-10T04:25:50.413Z,20.00
2019-04-10T04:26:50.719Z,28.00
2019-04-10T04:27:49.723Z,28.00
2019-04-10T04:28:49.681Z,36.00
2019-04-10T04:29:49.896Z,40.00
2019-04-10T04:30:51.925Z,48.00
2019-04-10T04:31:50.590Z,52.00
2019-04-10T04:32:50.504Z,60.00
2019-04-10T04:33:49.539Z,68.00
2019-04-10T04:34:49.765Z,80.00
2019-04-10T04:35:49.494Z,88.00
2019-04-10T04:36:49.462Z,104.00
2019-04-10T04:37:50.496Z,116.00
2019-04-10T04:38:49.410Z,132.00
2019-04-10T04:39:49.388Z,144.00
2019-04-10T04:40:51.283Z,164.00
2019-04-10T04:41:50.101Z,184.00
2019-04-10T04:42:49.424Z,204.00
2019-04-10T04:43:50.171Z,224.00
2019-04-10T04:44:49.267Z,248.00
2019-04-10T04:45:49.235Z,272.00
2019-04-10T04:46:49.238Z,296.00
2019-04-10T04:47:50.275Z,324.00
2019-04-10T04:48:50.091Z,352.00
2019-04-10T04:49:50.036Z,384.00
2019-04-10T04:50:49.992Z,412.00
2019-04-10T04:51:49.078Z,444.00
2019-04-10T04:52:49.346Z,476.00
2019-04-10T04:53:49.025Z,512.00
2019-04-10T04:54:49.836Z,548.00
2019-04-10T04:55:48.973Z,588.00
2019-04-10T04:56:48.956Z,628.00
2019-04-10T04:57:49.161Z,668.00
2019-04-10T04:58:49.693Z,716.00
2019-04-10T04:59:48.872Z,752.00
2019-04-10T05:00:48.853Z,800.00
2019-04-10T05:01:48.915Z,848.00
2019-04-10T05:02:48.792Z,896.00
2019-04-10T05:03:48.769Z,948.00
2019-04-10T05:04:49.379Z,996.00
2019-04-10T05:05:49.663Z,1048.00
2019-04-10T05:06:48.700Z,1104.00
2019-04-10T05:07:58.485Z,1160.00
2019-04-10T05:08:48.670Z,1216.00
2019-04-10T05:09:48.615Z,1272.00
2019-04-10T05:10:49.652Z,1328.00
2019-04-10T05:11:48.977Z,1384.00
2019-04-10T05:12:49.471Z,1440.00
2019-04-10T05:13:48.972Z,1040.00
2019-04-10T05:14:48.484Z,1180.00
2019-04-10T05:15:49.241Z,1620.00
2019-04-10T05:16:48.431Z,1696.00
2019-04-10T05:17:49.338Z,1744.00
2019-04-10T05:18:48.380Z,1800.00
2019-04-10T05:19:48.355Z,1872.00
2019-04-10T05:20:50.500Z,1924.00
2019-04-10T05:21:48.303Z,1976.00
2019-04-10T05:22:49.203Z,2032.00
2019-04-10T05:23:49.246Z,2092.00
2019-04-10T05:24:48.855Z,2160.00
2019-04-10T05:25:48.213Z,2232.00
2019-04-10T05:26:49.123Z,2288.00
2019-04-10T05:27:49.025Z,2348.00
2019-04-10T05:28:48.609Z,2408.00
2019-04-10T05:29:48.102Z,2484.00
2019-04-10T05:30:48.070Z,2540.00
2019-04-10T05:31:48.961Z,2596.00
2019-04-10T05:32:48.018Z,2652.00
2019-04-10T05:33:49.072Z,2728.00
2019-04-10T05:34:47.969Z,2792.00
2019-04-10T05:35:48.817Z,2856.00
2019-04-10T05:36:49.049Z,2908.00
2019-04-10T05:37:47.889Z,2980.00
2019-04-10T05:38:48.221Z,3040.00
2019-04-10T05:39:50.744Z,3124.00
2019-04-10T05:40:48.527Z,3216.00
2019-04-10T05:41:48.465Z,3276.00
2019-04-10T05:42:47.761Z,3344.00
2019-04-10T05:43:48.824Z,3408.00
2019-04-10T05:44:47.891Z,3476.00
2019-04-10T05:45:48.612Z,3524.00
2019-04-10T05:46:47.658Z,3584.00
2019-04-10T05:47:47.631Z,3640.00
2019-04-10T05:48:49.037Z,3712.00
2019-04-10T05:49:47.586Z,3772.00
2019-04-10T05:50:54.038Z,3844.00
2019-04-10T05:51:47.929Z,3952.00
2019-04-10T05:52:47.508Z,4072.00
2019-04-10T05:53:49.892Z,4188.00
2019-04-10T05:54:47.454Z,4300.00
2019-04-10T05:55:47.429Z,4408.00
2019-04-10T05:56:47.413Z,4528.00
2019-04-10T05:57:47.376Z,4696.00
2019-04-10T05:58:47.354Z,5184.00
2019-04-10T05:59:48.031Z,8652.00
2019-04-10T06:00:47.300Z,14080.00
2019-04-10T06:01:48.484Z,17632.00
2019-04-10T06:02:48.173Z,19616.00
2019-04-10T06:03:47.390Z,16512.00
2019-04-10T06:04:47.216Z,18400.00
2019-04-10T06:05:47.174Z,15328.00
2019-04-10T06:06:47.146Z,10484.00
2019-04-10T06:07:47.553Z,10444.00
2019-04-10T06:08:47.144Z,21312.00
2019-04-10T06:09:56.803Z,11980.00
2019-04-10T06:10:47.830Z,14848.00
2019-04-10T06:11:47.429Z,14272.00
2019-04-10T06:12:47.002Z,16352.00
2019-04-10T06:13:46.983Z,11988.00
2019-04-10T06:14:46.953Z,13452.00
2019-04-10T06:15:47.493Z,17216.00
2019-04-10T06:16:46.913Z,13620.00
2019-04-10T06:17:47.023Z,10980.00
2019-04-10T06:18:47.187Z,11540.00
2019-04-10T06:19:46.903Z,9152.00
2019-04-10T06:20:47.328Z,8984.00
2019-04-10T06:21:46.792Z,9016.00
2019-04-10T06:22:47.339Z,11112.00
2019-04-10T06:23:47.660Z,12496.00
2019-04-10T06:24:46.812Z,18016.00
2019-04-10T06:25:47.815Z,9644.00
2019-04-10T06:26:47.818Z,20384.00
2019-04-10T06:27:46.654Z,20192.00
2019-04-10T06:28:46.629Z,19424.00
2019-04-10T06:29:47.641Z,20736.00
2019-04-10T06:30:46.592Z,16576.00
2019-04-10T06:31:47.195Z,22016.00
2019-04-10T06:32:47.357Z,22656.00
2019-04-10T06:33:46.522Z,12068.00
2019-04-10T06:34:46.499Z,10008.00
2019-04-10T06:35:46.863Z,10688.00
2019-04-10T06:36:46.459Z,8788.00
2019-04-10T06:37:46.526Z,8248.00
2019-04-10T06:38:47.390Z,7392.00
2019-04-10T06:39:46.556Z,7340.00
2019-04-10T06:40:46.371Z,7248.00
2019-04-10T06:41:46.768Z,7292.00
2019-04-10T06:42:51.641Z,7308.00
2019-04-10T06:43:47.461Z,7428.00
2019-04-10T06:44:46.296Z,7344.00
2019-04-10T06:45:46.258Z,7536.00
2019-04-10T06:46:46.532Z,7396.00
2019-04-10T06:47:46.631Z,7400.00
2019-04-10T06:48:46.198Z,7412.00
2019-04-10T06:49:46.173Z,7476.00
2019-04-10T06:50:46.154Z,7580.00
2019-04-10T06:51:46.174Z,7612.00
2019-04-10T06:52:47.079Z,7652.00
2019-04-10T06:53:54.039Z,7828.00
2019-04-10T06:54:47.013Z,7784.00
2019-04-10T06:55:46.866Z,7972.00
2019-04-10T06:56:48.349Z,8220.00
2019-04-10T06:57:51.932Z,8204.00
2019-04-10T06:58:45.969Z,8144.00
2019-04-10T06:59:46.175Z,8080.00
2019-04-10T07:00:50.618Z,8004.00
2019-04-10T07:01:51.389Z,8064.00
2019-04-10T07:02:46.298Z,8144.00
2019-04-10T07:03:57.132Z,8184.00
2019-04-10T07:04:53.104Z,8292.00
2019-04-10T07:06:01.363Z,8280.00
2019-04-10T07:06:55.715Z,8212.00
2019-04-10T07:07:51.935Z,8224.00
2019-04-10T07:08:49.851Z,8232.00
2019-04-10T07:09:45.705Z,8236.00
2019-04-10T07:10:54.059Z,8268.00
2019-04-10T07:11:47.944Z,8308.00
2019-04-10T07:12:45.771Z,8432.00
2019-04-10T07:13:45.615Z,8548.00
2019-04-10T07:14:49.249Z,8652.00
2019-04-10T07:15:46.881Z,8780.00
2019-04-10T07:16:45.679Z,8856.00
2019-04-10T07:17:45.520Z,9088.00
2019-04-10T07:18:48.928Z,9660.00
2019-04-10T07:19:46.019Z,12024.00
2019-04-10T07:20:46.364Z,16644.00
2019-04-10T07:21:45.429Z,19104.00
2019-04-10T07:22:47.223Z,13276.00
2019-04-10T07:23:45.388Z,15008.00
2019-04-10T07:24:46.143Z,20384.00
2019-04-10T07:25:46.906Z,16464.00
2019-04-10T07:26:47.862Z,14532.00
2019-04-10T07:27:45.921Z,17640.00
2019-04-10T07:28:47.206Z,15632.00
2019-04-10T07:29:45.240Z,18560.00
2019-04-10T07:30:45.657Z,17312.00
2019-04-10T07:31:45.196Z,13368.00
2019-04-10T07:32:47.898Z,26528.00
2019-04-10T07:33:50.091Z,12444.00
2019-04-10T07:34:45.129Z,19200.00
2019-04-10T07:35:45.106Z,17024.00
2019-04-10T07:36:45.557Z,22208.00
2019-04-10T07:37:45.066Z,21184.00
2019-04-10T07:38:45.055Z,32000.00
2019-04-10T07:39:45.129Z,44320.00
2019-04-10T07:40:45.071Z,25184.00
2019-04-10T07:41:45.379Z,15184.00
2019-04-10T07:42:44.955Z,8164.00
2019-04-10T07:43:44.945Z,18784.00
2019-04-10T07:45:44.895Z,19488.00
2019-04-10T07:46:48.743Z,16328.00
2019-04-10T07:47:44.847Z,47712.00
2019-04-10T07:48:45.560Z,40832.00
2019-04-10T07:49:44.811Z,59296.00
2019-04-10T07:50:46.947Z,12888.00
2019-04-10T07:51:47.273Z,47776.00
2019-04-10T07:52:45.795Z,41056.00
2019-04-10T07:53:44.723Z,32512.00
2019-04-10T07:54:45.144Z,26368.00
2019-04-10T07:55:56.431Z,14240.00
2019-04-10T07:56:44.662Z,17856.00
2019-04-10T07:57:47.237Z,24064.00
2019-04-10T07:58:44.623Z,14272.00
2019-04-10T07:59:45.294Z,35616.00
2019-04-10T08:00:44.878Z,15924.00
2019-04-10T08:01:44.565Z,28160.00
2019-04-10T08:02:44.835Z,27840.00
2019-04-10T08:03:46.418Z,28096.00
2019-04-10T08:04:45.329Z,21952.00
2019-04-10T08:05:44.494Z,31232.00
2019-04-10T08:06:44.736Z,36160.00
2019-04-10T08:07:45.205Z,30656.00
2019-04-10T08:08:44.786Z,35904.00
2019-04-10T08:09:44.470Z,19072.00
2019-04-10T08:10:45.106Z,26912.00
2019-04-10T08:11:44.832Z,18688.00
2019-04-10T08:12:50.047Z,24864.00
2019-04-10T08:13:44.870Z,10700.00
2019-04-10T08:14:44.337Z,14244.00
2019-04-10T08:15:45.375Z,13548.00
2019-04-10T08:16:44.276Z,12312.00
2019-04-10T08:17:44.544Z,14604.00
2019-04-10T08:18:44.247Z,19456.00
2019-04-10T08:19:45.272Z,21312.00
2019-04-10T08:20:44.203Z,17356.00
2019-04-10T08:21:44.395Z,33728.00
2019-04-10T08:22:44.871Z,16848.00
2019-04-10T08:23:44.606Z,15328.00
2019-04-10T08:24:46.174Z,14884.00
2019-04-10T08:25:44.329Z,25504.00
2019-04-10T08:26:45.125Z,31584.00
2019-04-10T08:27:44.077Z,23520.00
2019-04-10T08:29:39.357Z,27328.00
2019-04-10T08:31:48.353Z,45984.00
2019-04-10T08:40:48.909Z,31488.00
2019-04-10T08:41:50.032Z,53312.00
2019-04-10T08:42:49.232Z,23712.00
2019-04-10T08:43:48.863Z,27072.00
2019-04-10T08:44:48.841Z,23072.00
2019-04-10T08:45:52.103Z,23936.00
2019-04-10T08:46:48.803Z,21920.00
2019-04-10T08:47:48.783Z,25504.00
2019-04-10T08:48:49.812Z,28992.00
2019-04-10T08:49:49.466Z,42496.00
2019-04-10T08:50:48.748Z,34560.00
2019-04-10T08:51:48.714Z,24160.00
2019-04-10T08:52:48.754Z,38176.00
2019-04-10T08:53:48.906Z,31552.00
2019-04-10T08:54:49.098Z,26080.00
2019-04-10T08:55:48.652Z,21120.00
2019-04-10T08:56:49.228Z,18812.00
2019-04-10T08:57:48.609Z,29152.00
2019-04-10T08:58:49.681Z,33376.00
2019-04-10T08:59:48.575Z,8768.00
2019-04-10T09:00:50.965Z,23776.00
2019-04-10T09:01:49.364Z,18912.00
2019-04-10T09:02:48.685Z,13828.00
2019-04-10T09:03:48.923Z,39104.00
2019-04-10T09:04:49.032Z,28000.00
2019-04-10T09:05:49.069Z,31488.00
2019-04-10T09:06:49.489Z,29248.00
2019-04-10T09:07:48.615Z,27808.00
2019-04-10T09:08:48.918Z,30400.00
2019-04-10T09:09:48.411Z,46912.00
2019-04-10T09:10:50.436Z,19712.00
2019-04-10T09:12:54.515Z,30976.00
2019-04-10T09:13:52.792Z,43456.00
2019-04-10T09:14:52.390Z,38336.00
2019-04-10T09:15:52.401Z,58752.00
2019-04-10T09:16:53.094Z,44000.00
2019-04-10T09:17:52.534Z,31392.00
2019-04-10T09:18:52.358Z,48608.00
2019-04-10T09:19:52.308Z,52800.00
2019-04-10T09:20:53.105Z,68032.00
2019-04-10T09:21:52.276Z,38624.00
2019-04-10T09:23:13.369Z,19872.00
2019-04-10T09:23:54.450Z,53888.00
2019-04-10T09:24:52.893Z,48960.00
2019-04-10T09:25:52.268Z,20192.00
2019-04-10T09:26:52.851Z,56864.00
2019-04-10T09:27:52.191Z,18272.00
2019-04-10T09:28:52.946Z,72480.00
2019-04-10T09:29:52.234Z,57760.00
2019-04-10T09:30:53.186Z,70592.00
2019-04-10T09:31:52.148Z,52192.00
2019-04-10T09:32:52.777Z,50848.00
2019-04-10T09:33:52.109Z,39712.00
2019-04-10T09:34:52.187Z,21568.00
2019-04-10T09:35:52.988Z,36608.00
2019-04-10T09:36:52.066Z,64352.00
2019-04-10T09:37:52.451Z,18144.00
2019-04-10T09:38:52.818Z,52160.00
2019-04-10T09:39:53.437Z,65952.00
2019-04-10T09:40:53.219Z,21120.00
2019-04-10T09:41:52.353Z,54240.00
2019-04-10T09:42:52.180Z,44576.00
2019-04-10T09:43:51.970Z,34080.00
2019-04-10T09:44:52.806Z,27392.00
2019-04-10T09:45:51.942Z,60768.00
2019-04-10T09:46:51.939Z,39744.00
2019-04-10T09:47:52.303Z,56704.00
2019-04-10T09:48:52.054Z,71488.00
2019-04-10T09:49:51.916Z,80832.00
2019-04-10T09:50:52.626Z,80992.00
2019-04-10T09:51:51.870Z,79200.00
2019-04-10T09:52:52.423Z,76768.00
2019-04-10T09:53:51.846Z,75808.00
2019-04-10T09:54:51.835Z,76160.00
2019-04-10T09:55:52.414Z,79840.00
2019-04-10T09:56:52.810Z,82208.00
2019-04-10T09:57:51.909Z,83552.00
2019-04-10T09:58:51.961Z,80416.00
2019-04-10T09:59:52.658Z,74560.00
2019-04-10T10:00:52.255Z,73440.00
2019-04-10T10:01:52.740Z,78144.00
2019-04-10T10:02:52.884Z,80896.00
2019-04-10T10:03:52.779Z,77600.00
2019-04-10T10:04:51.791Z,78976.00
2019-04-10T10:05:51.723Z,87936.00
2019-04-10T10:06:51.712Z,90976.00
2019-04-10T10:07:52.966Z,88672.00
2019-04-10T10:08:52.328Z,90016.00
2019-04-10T10:09:51.683Z,92096.00
2019-04-10T10:10:51.674Z,90624.00
2019-04-10T10:11:51.667Z,90496.00
2019-04-10T10:12:52.638Z,94816.00
2019-04-10T10:13:52.304Z,96064.00
2019-04-10T10:14:51.954Z,77984.00
2019-04-10T10:15:51.638Z,95264.00
2019-04-10T10:16:52.585Z,94592.00
2019-04-10T10:17:51.618Z,93696.00
2019-04-10T10:18:51.966Z,92608.00
2019-04-10T10:19:53.566Z,92992.00
2019-04-10T10:20:52.281Z,91872.00
2019-04-10T10:21:52.545Z,85760.00
2019-04-10T10:22:51.813Z,80800.00
2019-04-10T10:23:52.033Z,82336.00
2019-04-10T10:24:51.555Z,84576.00
2019-04-10T10:25:51.537Z,88160.00
2019-04-10T10:26:51.544Z,86240.00
2019-04-10T10:27:51.521Z,84128.00
2019-04-10T10:28:52.503Z,82112.00
2019-04-10T10:29:53.452Z,84096.00
2019-04-10T10:30:51.599Z,85184.00
2019-04-10T10:31:52.584Z,90080.00
2019-04-10T10:32:51.476Z,89792.00
2019-04-10T10:33:52.210Z,89408.00
2019-04-10T10:34:52.300Z,86496.00
2019-04-10T10:35:51.598Z,79456.00
2019-04-10T10:36:53.173Z,73536.00
2019-04-10T10:37:51.546Z,78752.00
2019-04-10T10:39:03.610Z,84768.00
2019-04-10T10:39:51.417Z,81088.00
2019-04-10T10:40:51.404Z,74144.00
2019-04-10T10:41:51.557Z,67584.00
2019-04-10T10:42:51.928Z,66592.00
2019-04-10T10:43:51.381Z,75200.00
2019-04-10T10:44:51.371Z,24224.00
2019-04-10T10:45:51.368Z,76448.00
2019-04-10T10:46:51.621Z,76384.00
2019-04-10T10:47:52.589Z,77696.00
2019-04-10T10:48:51.683Z,66944.00
2019-04-10T10:49:51.331Z,86656.00
2019-04-10T10:50:51.316Z,73440.00
2019-04-10T10:51:51.310Z,75584.00
2019-04-10T10:52:52.138Z,67936.00
2019-04-10T10:53:52.285Z,75392.00
2019-04-10T10:54:51.468Z,80160.00
2019-04-10T10:55:51.287Z,77216.00
2019-04-10T10:56:51.261Z,73248.00
2019-04-10T10:57:51.286Z,71936.00
2019-04-10T10:58:53.026Z,73344.00
2019-04-10T10:59:51.486Z,75232.00
2019-04-10T11:00:51.739Z,77888.00
2019-04-10T11:01:51.940Z,78272.00
2019-04-10T11:02:51.896Z,83584.00
2019-04-10T11:03:51.194Z,78976.00
2019-04-10T11:04:51.706Z,79808.00
2019-04-10T11:05:51.171Z,79904.00
2019-04-10T11:06:58.859Z,80064.00
2019-04-10T11:07:51.481Z,81024.00
2019-04-10T11:08:51.491Z,78656.00
2019-04-10T11:09:52.690Z,73600.00
2019-04-10T11:10:55.501Z,71296.00
2019-04-10T11:11:51.113Z,73408.00
2019-04-10T11:12:52.170Z,74944.00
2019-04-10T11:13:51.093Z,73728.00
2019-04-10T11:14:52.280Z,73792.00
2019-04-10T11:15:52.396Z,74880.00
2019-04-10T11:16:51.665Z,77440.00
2019-04-10T11:17:52.009Z,75360.00
2019-04-10T11:18:51.043Z,73248.00
2019-04-10T11:19:51.396Z,68096.00
2019-04-10T11:20:52.227Z,67680.00
2019-04-10T11:21:51.102Z,64672.00
2019-04-10T11:22:51.015Z,63904.00
2019-04-10T11:23:51.004Z,71872.00
2019-04-10T11:24:51.269Z,76672.00
2019-04-10T11:25:52.742Z,74464.00
2019-04-10T11:26:51.909Z,74624.00
2019-04-10T11:27:51.581Z,74496.00
2019-04-10T11:28:50.960Z,75040.00
2019-04-10T11:29:51.103Z,66784.00
2019-04-10T11:30:50.929Z,69568.00
2019-04-10T11:31:51.261Z,64352.00
2019-04-10T11:32:50.915Z,69056.00
2019-04-10T11:33:53.725Z,63840.00
2019-04-10T11:34:50.891Z,76192.00
2019-04-10T11:35:51.527Z,28448.00
2019-04-10T11:37:11.258Z,13192.00
2019-04-10T11:37:53.312Z,68384.00
2019-04-10T11:38:51.862Z,64192.00
2019-04-10T11:39:51.589Z,63488.00
2019-04-10T11:40:52.160Z,64224.00
2019-04-10T11:41:50.813Z,10740.00
2019-04-10T11:42:51.516Z,9992.00
2019-04-10T11:43:52.788Z,37856.00
2019-04-10T11:44:53.668Z,66880.00
2019-04-10T11:46:52.683Z,55072.00
2019-04-10T11:47:51.388Z,54720.00
2019-04-10T11:48:51.793Z,59936.00
2019-04-10T11:49:50.737Z,64320.00
2019-04-10T11:50:51.132Z,70208.00
2019-04-10T11:51:52.972Z,55232.00
2019-04-10T11:53:54.415Z,40512.00
2019-04-10T11:54:52.652Z,66176.00
2019-04-10T11:55:53.000Z,63488.00
2019-04-10T11:56:52.861Z,44096.00
2019-04-10T11:57:51.536Z,20320.00
2019-04-10T11:58:55.851Z,19424.00
2019-04-10T11:59:50.600Z,17920.00
2019-04-10T12:00:52.528Z,16588.00
2019-04-10T12:01:52.976Z,14984.00
2019-04-10T12:02:52.860Z,13900.00
2019-04-10T12:03:52.201Z,13312.00
2019-04-10T12:05:51.835Z,10712.00
2019-04-10T12:06:54.995Z,10900.00
2019-04-10T12:08:18.158Z,9364.00
2019-04-10T12:09:13.757Z,8896.00
2019-04-10T12:11:08.876Z,8012.00
2019-04-10T12:11:50.414Z,7828.00
2019-04-10T12:12:51.467Z,7932.00
2019-04-10T12:13:50.518Z,8080.00
2019-04-10T12:14:54.123Z,8136.00
2019-04-10T12:15:50.516Z,7968.00
2019-04-10T12:16:51.507Z,7692.00
2019-04-10T12:17:50.330Z,7692.00
2019-04-10T12:18:50.950Z,7852.00
2019-04-10T12:19:50.293Z,8224.00
2019-04-10T12:20:51.454Z,8728.00
2019-04-10T12:21:50.409Z,10060.00
2019-04-10T12:22:50.377Z,11296.00
2019-04-10T12:23:51.434Z,12228.00
2019-04-10T12:24:51.310Z,12648.00
2019-04-10T12:25:52.010Z,12788.00
2019-04-10T12:26:50.172Z,11856.00
2019-04-10T12:27:50.170Z,10332.00
2019-04-10T12:28:50.141Z,8988.00
2019-04-10T12:29:50.996Z,9324.00
2019-04-10T12:30:51.248Z,9744.00
2019-04-10T12:31:50.336Z,7772.00
2019-04-10T12:32:50.060Z,6644.00
2019-04-10T12:33:50.730Z,6932.00
2019-04-10T12:34:50.815Z,7004.00
2019-04-10T12:35:50.036Z,7192.00
2019-04-10T12:36:51.803Z,7528.00
2019-04-10T12:37:59.426Z,7860.00